createdAt,value
2019-06-01T00:00:16.512Z,0.00
2019-06-01T00:01:16.455Z,0.00
2019-06-01T00:02:16.454Z,0.00
2019-06-01T00:03:16.435Z,0.00
2019-06-01T00:04:16.429Z,0.00
2019-06-01T00:05:16.439Z,0.00
2019-06-01T00:06:16.398Z,0.00
2019-06-01T00:07:16.389Z,0.00
2019-06-01T00:08:16.413Z,0.00
2019-06-01T00:09:16.391Z,0.00
2019-06-01T00:10:16.402Z,0.00
2019-06-01T00:11:16.341Z,0.00
2019-06-01T00:12:16.332Z,0.00
2019-06-01T00:13:16.331Z,0.00
2019-06-01T00:14:16.307Z,0.00
2019-06-01T00:15:16.364Z,0.00
2019-06-01T00:16:16.291Z,0.00
2019-06-01T00:17:16.279Z,0.00
2019-06-01T00:18:16.265Z,0.00
2019-06-01T00:19:16.264Z,0.00
2019-06-01T00:20:16.265Z,0.00
2019-06-01T00:21:16.253Z,0.00
2019-06-01T00:22:16.239Z,0.00
2019-06-01T00:23:16.224Z,0.00
2019-06-01T00:24:16.211Z,0.00
2019-06-01T00:25:16.204Z,0.00
2019-06-01T00:26:16.185Z,0.00
2019-06-01T00:27:16.172Z,0.00
2019-06-01T00:28:16.158Z,0.00
2019-06-01T00:29:16.186Z,0.00
2019-06-01T00:30:26.737Z,0.00
2019-06-01T00:31:17.129Z,0.00
2019-06-01T00:32:16.110Z,0.00
2019-06-01T00:33:16.098Z,0.00
2019-06-01T00:34:16.091Z,0.00
2019-06-01T00:35:16.119Z,0.00
2019-06-01T00:36:16.124Z,0.00
2019-06-01T00:37:16.081Z,0.00
2019-06-01T00:38:16.064Z,0.00
2019-06-01T00:39:16.047Z,0.00
2019-06-01T00:40:16.046Z,0.00
2019-06-01T00:41:16.047Z,0.00
2019-06-01T00:42:16.022Z,0.00
2019-06-01T00:43:15.997Z,0.00
2019-06-01T00:44:15.998Z,0.00
2019-06-01T00:45:16.034Z,0.00
2019-06-01T00:46:15.985Z,0.00
2019-06-01T00:47:15.980Z,0.00
2019-06-01T00:48:15.970Z,0.00
2019-06-01T00:49:15.938Z,0.00
2019-06-01T00:50:15.941Z,0.00
2019-06-01T00:51:15.934Z,0.00
2019-06-01T00:52:15.901Z,0.00
2019-06-01T00:53:15.891Z,0.00
2019-06-01T00:54:15.870Z,0.00
2019-06-01T00:55:15.907Z,0.00
2019-06-01T00:56:15.858Z,0.00
2019-06-01T00:57:15.843Z,0.00
2019-06-01T00:58:15.836Z,0.00
2019-06-01T00:59:15.821Z,0.00
2019-06-01T01:00:15.834Z,0.00
2019-06-01T01:01:15.790Z,0.00
2019-06-01T01:02:15.780Z,0.00
2019-06-01T01:03:15.782Z,0.00
2019-06-01T01:04:15.758Z,0.00
2019-06-01T01:05:15.769Z,0.00
2019-06-01T01:06:15.745Z,0.00
2019-06-01T01:07:15.762Z,0.00
2019-06-01T01:08:15.716Z,0.00
2019-06-01T01:09:15.696Z,0.00
2019-06-01T01:10:15.725Z,0.00
2019-06-01T01:11:15.690Z,0.00
2019-06-01T01:12:15.673Z,0.00
2019-06-01T01:13:15.664Z,0.00
2019-06-01T01:14:15.661Z,0.00
2019-06-01T01:15:15.686Z,0.00
2019-06-01T01:16:15.642Z,0.00
2019-06-01T01:17:15.613Z,0.00
2019-06-01T01:18:15.607Z,0.00
2019-06-01T01:19:15.594Z,0.00
2019-06-01T01:20:15.613Z,0.00
2019-06-01T01:21:15.575Z,0.00
2019-06-01T01:22:15.606Z,0.00
2019-06-01T01:23:15.542Z,0.00
2019-06-01T01:24:15.535Z,0.00
2019-06-01T01:25:15.560Z,0.00
2019-06-01T01:26:15.508Z,0.00
2019-06-01T01:27:15.502Z,0.00
2019-06-01T01:28:15.508Z,0.00
2019-06-01T01:29:15.488Z,0.00
2019-06-01T01:30:15.484Z,0.00
2019-06-01T01:31:15.452Z,0.00
2019-06-01T01:32:15.439Z,0.00
2019-06-01T01:33:15.444Z,0.00
2019-06-01T01:34:15.436Z,0.00
2019-06-01T01:35:15.464Z,0.00
2019-06-01T01:36:15.406Z,0.00
2019-06-01T01:37:15.389Z,0.00
2019-06-01T01:38:15.379Z,0.00
2019-06-01T01:39:15.363Z,0.00
2019-06-01T01:40:15.396Z,0.00
2019-06-01T01:41:15.357Z,0.00
2019-06-01T01:42:15.332Z,0.00
2019-06-01T01:43:15.336Z,0.00
2019-06-01T01:44:15.322Z,0.00
2019-06-01T01:45:15.325Z,0.00
2019-06-01T01:46:15.296Z,0.00
2019-06-01T01:47:15.281Z,0.00
2019-06-01T01:48:15.273Z,0.00
2019-06-01T01:49:15.275Z,0.00
2019-06-01T01:50:15.284Z,0.00
2019-06-01T01:51:15.242Z,0.00
2019-06-01T01:52:15.230Z,0.00
2019-06-01T01:53:15.220Z,0.00
2019-06-01T01:54:15.226Z,0.00
2019-06-01T01:55:15.195Z,0.00
2019-06-01T01:56:15.201Z,0.00
2019-06-01T01:57:15.165Z,0.00
2019-06-01T01:58:15.160Z,0.00
2019-06-01T01:59:15.142Z,0.00
2019-06-01T02:00:15.170Z,0.00
2019-06-01T02:01:22.334Z,0.00
2019-06-01T02:02:16.107Z,0.00
2019-06-01T02:03:15.102Z,0.00
2019-06-01T02:04:15.096Z,0.00
2019-06-01T02:05:15.105Z,0.00
2019-06-01T02:06:15.121Z,0.00
2019-06-01T02:07:15.055Z,0.00
2019-06-01T02:08:15.049Z,0.00
2019-06-01T02:09:15.045Z,0.00
2019-06-01T02:10:15.029Z,0.00
2019-06-01T02:11:15.038Z,0.00
2019-06-01T02:12:15.050Z,0.00
2019-06-01T02:13:15.000Z,0.00
2019-06-01T02:14:14.985Z,0.00
2019-06-01T02:15:14.978Z,0.00
2019-06-01T02:16:14.975Z,0.00
2019-06-01T02:17:14.951Z,0.00
2019-06-01T02:18:14.962Z,0.00
2019-06-01T02:19:14.935Z,0.00
2019-06-01T02:20:14.931Z,0.00
2019-06-01T02:21:14.949Z,0.00
2019-06-01T02:22:14.894Z,0.00
2019-06-01T02:23:14.914Z,0.00
2019-06-01T02:24:14.886Z,0.00
2019-06-01T02:25:14.892Z,0.00
2019-06-01T02:26:14.907Z,0.00
2019-06-01T02:27:14.856Z,0.00
2019-06-01T02:28:14.842Z,0.00
2019-06-01T02:29:14.834Z,0.00
2019-06-01T02:30:14.815Z,0.00
2019-06-01T02:31:14.850Z,5.62
2019-06-01T02:32:14.807Z,5.62
2019-06-01T02:33:14.817Z,5.62
2019-06-01T02:34:14.772Z,5.62
2019-06-01T02:35:14.803Z,5.62
2019-06-01T02:36:14.793Z,5.62
2019-06-01T02:37:14.741Z,11.25
2019-06-01T02:38:14.745Z,11.25
2019-06-01T02:39:14.742Z,11.25
2019-06-01T02:40:14.715Z,11.25
2019-06-01T02:41:14.762Z,11.25
2019-06-01T02:42:14.707Z,11.25
2019-06-01T02:43:14.682Z,11.25
2019-06-01T02:44:14.674Z,16.88
2019-06-01T02:45:14.669Z,16.88
2019-06-01T02:46:14.683Z,16.88
2019-06-01T02:47:14.641Z,16.88
2019-06-01T02:48:14.644Z,16.88
2019-06-01T02:49:14.621Z,16.88
2019-06-01T02:50:14.615Z,16.88
2019-06-01T02:51:14.596Z,16.88
2019-06-01T02:52:14.608Z,22.50
2019-06-01T02:53:14.575Z,22.50
2019-06-01T02:54:14.573Z,22.50
2019-06-01T02:55:14.546Z,22.50
2019-06-01T02:56:14.543Z,28.12
2019-06-01T02:57:14.579Z,28.12
2019-06-01T02:58:14.576Z,28.12
2019-06-01T02:59:14.515Z,33.75
2019-06-01T03:00:14.504Z,33.75
2019-06-01T03:01:14.498Z,33.75
2019-06-01T03:02:15.143Z,39.38
2019-06-01T03:03:14.502Z,39.38
2019-06-01T03:04:14.476Z,39.38
2019-06-01T03:05:14.448Z,45.00
2019-06-01T03:06:14.436Z,45.00
2019-06-01T03:07:14.425Z,45.00
2019-06-01T03:08:14.438Z,50.62
2019-06-01T03:09:14.418Z,50.62
2019-06-01T03:10:14.391Z,50.62
2019-06-01T03:11:14.374Z,56.25
2019-06-01T03:12:14.374Z,56.25
2019-06-01T03:13:14.389Z,61.88
2019-06-01T03:14:14.358Z,61.88
2019-06-01T03:15:14.342Z,67.50
2019-06-01T03:16:14.329Z,67.50
2019-06-01T03:17:14.339Z,73.12
2019-06-01T03:18:14.303Z,73.12
2019-06-01T03:19:14.315Z,78.75
2019-06-01T03:20:14.286Z,78.75
2019-06-01T03:21:14.285Z,84.38
2019-06-01T03:22:14.274Z,84.38
2019-06-01T03:23:14.253Z,90.00
2019-06-01T03:24:14.262Z,90.00
2019-06-01T03:25:14.227Z,95.62
2019-06-01T03:26:14.223Z,95.62
2019-06-01T03:27:14.204Z,101.25
2019-06-01T03:28:14.206Z,101.25
2019-06-01T03:29:14.214Z,101.25
2019-06-01T03:30:15.566Z,106.88
2019-06-01T03:31:14.182Z,106.88
2019-06-01T03:32:34.408Z,112.50
2019-06-01T03:33:15.164Z,112.50
2019-06-01T03:34:14.242Z,112.50
2019-06-01T03:35:14.122Z,118.12
2019-06-01T03:36:14.136Z,118.12
2019-06-01T03:37:14.107Z,123.75
2019-06-01T03:38:14.091Z,129.38
2019-06-01T03:39:14.120Z,129.38
2019-06-01T03:40:23.460Z,135.00
2019-06-01T03:41:15.061Z,135.00
2019-06-01T03:42:14.095Z,140.62
2019-06-01T03:43:14.033Z,140.62
2019-06-01T03:44:14.052Z,146.25
2019-06-01T03:45:14.010Z,146.25
2019-06-01T03:46:14.013Z,151.88
2019-06-01T03:47:13.997Z,151.88
2019-06-01T03:48:14.013Z,157.50
2019-06-01T03:49:13.985Z,157.50
2019-06-01T03:50:13.966Z,163.12
2019-06-01T03:51:13.943Z,163.12
2019-06-01T03:52:13.941Z,168.75
2019-06-01T03:53:13.926Z,174.38
2019-06-01T03:54:13.930Z,180.00
2019-06-01T03:55:13.909Z,180.00
2019-06-01T03:56:13.922Z,185.62
2019-06-01T03:57:13.907Z,191.25
2019-06-01T03:58:13.881Z,196.88
2019-06-01T03:59:13.926Z,196.88
2019-06-01T04:00:13.851Z,202.50
2019-06-01T04:01:13.852Z,208.12
2019-06-01T04:02:13.847Z,208.12
2019-06-01T04:03:13.828Z,213.75
2019-06-01T04:04:13.830Z,213.75
2019-06-01T04:05:13.796Z,219.38
2019-06-01T04:06:13.793Z,225.00
2019-06-01T04:07:13.793Z,225.00
2019-06-01T04:08:13.763Z,225.00
2019-06-01T04:09:13.783Z,230.62
2019-06-01T04:10:13.752Z,236.25
2019-06-01T04:11:13.732Z,236.25
2019-06-01T04:12:13.727Z,241.88
2019-06-01T04:13:13.728Z,247.50
2019-06-01T04:14:13.720Z,247.50
2019-06-01T04:15:16.696Z,247.50
2019-06-01T04:16:13.668Z,253.12
2019-06-01T04:17:13.655Z,253.12
2019-06-01T04:18:14.076Z,258.75
2019-06-01T04:19:13.699Z,253.12
2019-06-01T04:20:13.653Z,264.38
2019-06-01T04:21:13.625Z,264.38
2019-06-01T04:22:13.614Z,270.00
2019-06-01T04:23:13.600Z,275.62
2019-06-01T04:24:13.587Z,275.62
2019-06-01T04:25:13.698Z,281.25
2019-06-01T04:26:13.601Z,281.25
2019-06-01T04:27:13.549Z,292.50
2019-06-01T04:28:13.544Z,298.12
2019-06-01T04:29:13.529Z,303.75
2019-06-01T04:30:13.789Z,309.38
2019-06-01T04:31:13.515Z,309.38
2019-06-01T04:32:13.522Z,320.62
2019-06-01T04:33:13.490Z,326.25
2019-06-01T04:34:13.482Z,343.12
2019-06-01T04:35:13.483Z,354.38
2019-06-01T04:36:13.456Z,354.38
2019-06-01T04:37:13.446Z,371.25
2019-06-01T04:38:13.505Z,405.00
2019-06-01T04:39:13.846Z,433.12
2019-06-01T04:40:13.717Z,483.75
2019-06-01T04:41:14.125Z,511.88
2019-06-01T04:42:13.904Z,523.12
2019-06-01T04:43:14.168Z,540.00
2019-06-01T04:44:14.357Z,545.62
2019-06-01T04:45:14.396Z,551.25
2019-06-01T04:46:14.462Z,568.12
2019-06-01T04:47:14.487Z,601.88
2019-06-01T04:48:14.586Z,618.75
2019-06-01T04:49:13.456Z,618.75
2019-06-01T04:50:13.324Z,624.38
2019-06-01T04:51:13.523Z,630.00
2019-06-01T04:52:13.585Z,652.50
2019-06-01T04:53:13.522Z,708.75
2019-06-01T04:54:14.407Z,720.00
2019-06-01T04:55:13.284Z,714.38
2019-06-01T04:56:13.242Z,725.62
2019-06-01T04:57:13.276Z,748.12
2019-06-01T04:58:13.237Z,759.38
2019-06-01T04:59:13.214Z,770.62
2019-06-01T05:00:25.705Z,787.50
2019-06-01T05:01:15.136Z,787.50
2019-06-01T05:02:13.236Z,798.75
2019-06-01T05:03:13.559Z,815.62
2019-06-01T05:04:13.359Z,826.88
2019-06-01T05:05:13.429Z,832.50
2019-06-01T05:06:13.467Z,810.00
2019-06-01T05:07:13.540Z,815.62
2019-06-01T05:08:13.937Z,883.12
2019-06-01T05:09:13.400Z,888.75
2019-06-01T05:10:14.319Z,894.38
2019-06-01T05:11:13.559Z,916.88
2019-06-01T05:12:13.627Z,916.88
2019-06-01T05:13:13.588Z,922.50
2019-06-01T05:14:13.772Z,956.25
2019-06-01T05:15:13.977Z,995.62
2019-06-01T05:16:14.786Z,1046.25
2019-06-01T05:17:14.919Z,1125.00
2019-06-01T05:18:14.170Z,1215.00
2019-06-01T05:19:14.083Z,1366.88
2019-06-01T05:20:12.984Z,1440.00
2019-06-01T05:21:13.086Z,1451.25
2019-06-01T05:22:12.949Z,1485.00
2019-06-01T05:23:12.950Z,1445.62
2019-06-01T05:24:12.930Z,1411.88
2019-06-01T05:25:13.624Z,1321.88
2019-06-01T05:26:13.255Z,1299.38
2019-06-01T05:27:13.134Z,1057.50
2019-06-01T05:28:13.299Z,1063.12
2019-06-01T05:29:13.515Z,961.88
2019-06-01T05:30:13.698Z,922.50
2019-06-01T05:31:16.724Z,945.00
2019-06-01T05:32:14.641Z,950.62
2019-06-01T05:33:31.068Z,933.75
2019-06-01T05:34:13.888Z,894.38
2019-06-01T05:35:13.779Z,843.75
2019-06-01T05:36:14.153Z,815.62
2019-06-01T05:37:14.163Z,793.12
2019-06-01T05:38:12.782Z,759.38
2019-06-01T05:39:12.776Z,748.12
2019-06-01T05:40:12.768Z,753.75
2019-06-01T05:41:13.234Z,753.75
2019-06-01T05:42:12.734Z,748.12
2019-06-01T05:43:15.682Z,720.00
2019-06-01T05:44:12.928Z,703.12
2019-06-01T05:45:13.050Z,697.50
2019-06-01T05:46:13.931Z,714.38
2019-06-01T05:47:12.682Z,742.50
2019-06-01T05:48:16.369Z,781.88
2019-06-01T05:49:14.732Z,781.88
2019-06-01T05:50:12.641Z,798.75
2019-06-01T05:51:15.217Z,798.75
2019-06-01T05:52:12.666Z,804.38
2019-06-01T05:53:12.620Z,810.00
2019-06-01T05:54:12.614Z,804.38
2019-06-01T05:55:12.927Z,793.12
2019-06-01T05:56:12.762Z,804.38
2019-06-01T05:57:12.714Z,838.12
2019-06-01T05:58:12.931Z,849.38
2019-06-01T05:59:12.549Z,838.12
2019-06-01T06:00:13.080Z,860.62
2019-06-01T06:01:12.608Z,877.50
2019-06-01T06:02:13.222Z,866.25
2019-06-01T06:03:15.365Z,860.62
2019-06-01T06:04:13.513Z,860.62
2019-06-01T06:05:12.624Z,866.25
2019-06-01T06:06:13.655Z,894.38
2019-06-01T06:07:12.801Z,900.00
2019-06-01T06:08:13.124Z,877.50
2019-06-01T06:09:13.316Z,860.62
2019-06-01T06:10:12.428Z,849.38
2019-06-01T06:11:12.896Z,838.12
2019-06-01T06:12:13.218Z,866.25
2019-06-01T06:13:13.345Z,894.38
2019-06-01T06:14:13.364Z,905.62
2019-06-01T06:15:13.538Z,1012.50
2019-06-01T06:16:13.694Z,933.75
2019-06-01T06:17:14.553Z,911.25
2019-06-01T06:18:12.331Z,894.38
2019-06-01T06:19:12.844Z,821.25
2019-06-01T06:20:12.371Z,765.00
2019-06-01T06:21:12.338Z,697.50
2019-06-01T06:22:12.301Z,652.50
2019-06-01T06:23:12.299Z,658.12
2019-06-01T06:24:12.269Z,697.50
2019-06-01T06:25:14.196Z,753.75
2019-06-01T06:26:14.997Z,776.25
2019-06-01T06:27:12.485Z,900.00
2019-06-01T06:28:12.577Z,770.62
2019-06-01T06:29:12.741Z,714.38
2019-06-01T06:30:12.793Z,703.12
2019-06-01T06:31:12.929Z,748.12
2019-06-01T06:32:12.894Z,804.38
2019-06-01T06:33:13.168Z,978.75
2019-06-01T06:34:13.258Z,2070.00
2019-06-01T06:35:13.259Z,2250.00
2019-06-01T06:36:12.201Z,2238.75
2019-06-01T06:37:12.151Z,2171.25
2019-06-01T06:38:12.137Z,2469.38
2019-06-01T06:39:12.100Z,2491.88
2019-06-01T06:40:12.100Z,2103.75
2019-06-01T06:41:12.087Z,1186.88
2019-06-01T06:42:12.126Z,1141.88
2019-06-01T06:43:21.332Z,973.12
2019-06-01T06:44:14.302Z,1085.62
2019-06-01T06:45:12.044Z,1940.62
2019-06-01T06:46:12.040Z,1985.62
2019-06-01T06:47:12.047Z,2120.62
2019-06-01T06:48:12.014Z,2227.50
2019-06-01T06:49:12.004Z,1327.50
2019-06-01T06:50:14.579Z,2036.25
2019-06-01T06:51:12.018Z,1659.38
2019-06-01T06:52:11.983Z,2435.62
2019-06-01T06:53:24.474Z,1569.38
2019-06-01T06:54:14.619Z,1839.38
2019-06-01T06:55:11.941Z,1153.12
2019-06-01T06:56:11.922Z,1243.12
2019-06-01T06:57:12.006Z,1237.50
2019-06-01T06:58:11.919Z,2491.88
2019-06-01T06:59:11.912Z,2430.00
2019-06-01T07:00:11.886Z,1170.00
2019-06-01T07:01:12.262Z,2441.25
2019-06-01T07:02:11.927Z,2565.00
2019-06-01T07:03:11.840Z,1411.88
2019-06-01T07:04:13.181Z,1884.38
2019-06-01T07:05:11.821Z,1473.75
2019-06-01T07:06:11.817Z,2311.88
2019-06-01T07:07:11.858Z,1895.62
2019-06-01T07:08:11.826Z,1361.25
2019-06-01T07:09:11.782Z,2525.62
2019-06-01T07:10:11.774Z,2666.25
2019-06-01T07:11:12.180Z,2604.38
2019-06-01T07:12:11.780Z,2874.38
2019-06-01T07:13:11.746Z,2745.00
2019-06-01T07:14:11.726Z,2851.88
2019-06-01T07:15:11.748Z,2964.38
2019-06-01T07:16:11.711Z,2908.12
2019-06-01T07:17:15.472Z,2868.75
2019-06-01T07:18:11.697Z,2885.62
2019-06-01T07:19:11.693Z,2981.25
2019-06-01T07:20:11.656Z,2705.62
2019-06-01T07:21:11.672Z,2604.38
2019-06-01T07:22:11.648Z,2880.00
2019-06-01T07:23:11.650Z,2795.62
2019-06-01T07:24:11.622Z,2424.38
2019-06-01T07:25:11.606Z,2936.25
2019-06-01T07:26:11.603Z,3082.50
2019-06-01T07:27:11.621Z,3009.38
2019-06-01T07:28:11.583Z,2880.00
2019-06-01T07:29:11.596Z,3071.25
2019-06-01T07:30:11.573Z,3121.88
2019-06-01T07:31:11.552Z,3099.38
2019-06-01T07:32:11.556Z,3183.75
2019-06-01T07:33:11.520Z,3161.25
2019-06-01T07:34:29.138Z,3099.38
2019-06-01T07:35:12.500Z,3076.88
2019-06-01T07:36:11.502Z,2947.50
2019-06-01T07:37:11.524Z,2936.25
2019-06-01T07:38:11.482Z,3054.38
2019-06-01T07:39:11.470Z,3060.00
2019-06-01T07:40:13.614Z,3093.75
2019-06-01T07:41:11.452Z,3088.12
2019-06-01T07:42:11.480Z,2750.62
2019-06-01T07:43:11.420Z,2722.50
2019-06-01T07:44:11.417Z,3234.38
2019-06-01T07:45:11.408Z,3588.75
2019-06-01T07:46:11.409Z,3465.00
2019-06-01T07:47:11.387Z,3538.12
2019-06-01T07:48:11.386Z,3414.38
2019-06-01T07:49:11.358Z,3307.50
2019-06-01T07:50:11.374Z,3127.50
2019-06-01T07:51:11.386Z,3166.88
2019-06-01T07:52:13.451Z,2739.38
2019-06-01T07:53:11.342Z,2469.38
2019-06-01T07:54:11.299Z,2823.75
2019-06-01T07:55:11.294Z,1462.50
2019-06-01T07:56:11.284Z,3403.12
2019-06-01T07:57:11.274Z,3442.50
2019-06-01T07:58:11.287Z,3206.25
2019-06-01T07:59:11.280Z,3588.75
2019-06-01T08:00:11.247Z,3425.62
2019-06-01T08:01:11.230Z,3296.25
2019-06-01T08:02:11.241Z,3346.88
2019-06-01T08:03:11.248Z,3296.25
2019-06-01T08:04:11.205Z,3352.50
2019-06-01T08:05:11.195Z,3498.75
2019-06-01T08:06:11.182Z,3611.25
2019-06-01T08:07:11.198Z,3009.38
2019-06-01T08:08:11.181Z,1816.88
2019-06-01T08:09:11.147Z,2812.50
2019-06-01T08:10:11.133Z,2126.25
2019-06-01T08:11:11.140Z,2857.50
2019-06-01T08:12:11.137Z,2401.88
2019-06-01T08:13:11.132Z,2716.88
2019-06-01T08:14:11.097Z,2311.88
2019-06-01T08:15:11.094Z,1316.25
2019-06-01T08:16:11.091Z,1496.25
2019-06-01T08:17:11.068Z,3127.50
2019-06-01T08:18:11.099Z,2598.75
2019-06-01T08:19:11.087Z,1535.62
2019-06-01T08:20:11.067Z,1518.75
2019-06-01T08:21:11.030Z,1372.50
2019-06-01T08:22:11.035Z,1552.50
2019-06-01T08:23:11.047Z,1203.75
2019-06-01T08:24:11.021Z,1181.25
2019-06-01T08:25:10.989Z,1237.50
2019-06-01T08:26:10.979Z,1170.00
2019-06-01T08:27:10.992Z,1192.50
2019-06-01T08:28:10.983Z,1215.00
2019-06-01T08:29:10.983Z,1271.25
2019-06-01T08:30:10.926Z,1198.12
2019-06-01T08:31:10.922Z,1192.50
2019-06-01T08:32:10.935Z,1147.50
2019-06-01T08:33:10.918Z,1158.75
2019-06-01T08:34:10.924Z,1130.62
2019-06-01T08:35:10.876Z,1209.38
2019-06-01T08:36:10.881Z,1181.25
2019-06-01T08:37:10.868Z,1192.50
2019-06-01T08:38:10.856Z,1423.12
2019-06-01T08:39:10.836Z,1513.12
2019-06-01T08:40:10.871Z,1344.38
2019-06-01T08:41:10.816Z,1231.88
2019-06-01T08:42:10.807Z,1164.38
2019-06-01T08:43:10.826Z,1170.00
2019-06-01T08:44:10.817Z,1417.50
2019-06-01T08:45:10.771Z,1231.88
2019-06-01T08:46:10.773Z,1153.12
2019-06-01T08:47:10.759Z,1215.00
2019-06-01T08:48:10.739Z,1220.62
2019-06-01T08:49:10.793Z,1125.00
2019-06-01T08:50:10.713Z,1119.38
2019-06-01T08:51:10.705Z,1136.25
2019-06-01T08:52:10.719Z,1130.62
2019-06-01T08:53:10.700Z,1119.38
2019-06-01T08:54:10.720Z,1096.88
2019-06-01T08:55:10.667Z,1012.50
2019-06-01T08:56:10.684Z,928.12
2019-06-01T08:57:10.658Z,900.00
2019-06-01T08:58:10.640Z,911.25
2019-06-01T08:59:10.702Z,928.12
2019-06-01T09:00:10.624Z,961.88
2019-06-01T09:01:10.602Z,945.00
2019-06-01T09:02:10.632Z,888.75
2019-06-01T09:03:10.584Z,888.75
2019-06-01T09:04:10.598Z,905.62
2019-06-01T09:05:23.382Z,1001.25
2019-06-01T09:06:11.552Z,928.12
2019-06-01T09:07:10.541Z,1012.50
2019-06-01T09:08:10.568Z,933.75
2019-06-01T09:09:11.942Z,956.25
2019-06-01T09:10:10.513Z,973.12
2019-06-01T09:11:10.508Z,939.38
2019-06-01T09:12:10.541Z,950.62
2019-06-01T09:13:10.476Z,950.62
2019-06-01T09:14:10.490Z,1018.12
2019-06-01T09:15:10.453Z,967.50
2019-06-01T09:16:10.451Z,1102.50
2019-06-01T09:17:10.449Z,1653.75
2019-06-01T09:18:10.440Z,1738.12
2019-06-01T09:19:11.579Z,2272.50
2019-06-01T09:20:10.411Z,1721.25
2019-06-01T09:21:10.387Z,1490.62
2019-06-01T09:22:10.383Z,1096.88
2019-06-01T09:23:10.381Z,1271.25
2019-06-01T09:24:10.374Z,1676.25
2019-06-01T09:25:10.363Z,1271.25
2019-06-01T09:26:10.408Z,1659.38
2019-06-01T09:27:10.341Z,1254.38
2019-06-01T09:28:10.319Z,1237.50
2019-06-01T09:29:10.322Z,1141.88
2019-06-01T09:30:10.315Z,1209.38
2019-06-01T09:31:10.278Z,1164.38
2019-06-01T09:32:11.370Z,1091.25
2019-06-01T09:33:10.335Z,1299.38
2019-06-01T09:34:10.271Z,1400.62
2019-06-01T09:35:10.258Z,1546.88
2019-06-01T09:36:10.231Z,1231.88
2019-06-01T09:37:10.225Z,1355.62
2019-06-01T09:38:10.213Z,1299.38
2019-06-01T09:39:10.211Z,1327.50
2019-06-01T09:40:10.216Z,1468.12
2019-06-01T09:41:10.193Z,1338.75
2019-06-01T09:42:10.173Z,1310.62
2019-06-01T09:43:10.167Z,1254.38
2019-06-01T09:44:10.137Z,1271.25
2019-06-01T09:45:10.173Z,1305.00
2019-06-01T09:46:10.134Z,1147.50
2019-06-01T09:47:10.116Z,1153.12
2019-06-01T09:48:10.098Z,1113.75
2019-06-01T09:49:10.095Z,1192.50
2019-06-01T09:50:10.091Z,1220.62
2019-06-01T09:51:10.105Z,1085.62
2019-06-01T09:52:12.568Z,1040.62
2019-06-01T09:53:10.104Z,995.62
2019-06-01T09:54:10.059Z,1063.12
2019-06-01T09:55:10.040Z,1158.75
2019-06-01T09:56:10.050Z,1198.12
2019-06-01T09:57:10.007Z,1361.25
2019-06-01T09:58:10.005Z,1254.38
2019-06-01T09:59:09.998Z,1411.88
2019-06-01T10:00:09.972Z,1271.25
2019-06-01T10:01:10.004Z,1158.75
2019-06-01T10:02:09.969Z,1231.88
2019-06-01T10:03:09.955Z,1141.88
2019-06-01T10:04:10.015Z,990.00
2019-06-01T10:05:09.946Z,1029.38
2019-06-01T10:06:13.825Z,1220.62
2019-06-01T10:07:09.917Z,1237.50
2019-06-01T10:08:09.891Z,1338.75
2019-06-01T10:09:09.893Z,995.62
2019-06-01T10:10:09.931Z,1215.00
2019-06-01T10:11:09.872Z,2576.25
2019-06-01T10:12:09.887Z,1310.62
2019-06-01T10:13:09.842Z,1951.88
2019-06-01T10:14:09.841Z,3954.38
2019-06-01T10:15:09.816Z,3836.25
2019-06-01T10:16:09.827Z,4618.12
2019-06-01T10:17:09.811Z,2092.50
2019-06-01T10:18:09.805Z,4933.12
2019-06-01T10:19:09.774Z,5158.12
2019-06-01T10:20:09.763Z,4876.88
2019-06-01T10:21:09.760Z,4376.25
2019-06-01T10:22:09.739Z,4983.75
2019-06-01T10:23:09.770Z,1755.00
2019-06-01T10:24:09.716Z,3976.88
2019-06-01T10:25:09.713Z,4314.38
2019-06-01T10:26:09.739Z,1310.62
2019-06-01T10:27:09.686Z,4629.38
2019-06-01T10:28:09.685Z,3082.50
2019-06-01T10:29:09.713Z,1136.25
2019-06-01T10:30:09.657Z,1361.25
2019-06-01T10:31:09.657Z,5079.38
2019-06-01T10:32:09.634Z,5338.12
2019-06-01T10:33:09.646Z,4719.38
2019-06-01T10:34:09.634Z,945.00
2019-06-01T10:35:09.615Z,5130.00
2019-06-01T10:36:19.964Z,1451.25
2019-06-01T10:37:10.622Z,4747.50
2019-06-01T10:38:09.574Z,4432.50
2019-06-01T10:39:09.575Z,2086.88
2019-06-01T10:40:09.549Z,2070.00
2019-06-01T10:41:09.595Z,1974.38
2019-06-01T10:42:09.536Z,2266.88
2019-06-01T10:43:09.518Z,1625.62
2019-06-01T10:44:09.540Z,1395.00
2019-06-01T10:45:09.508Z,2401.88
2019-06-01T10:46:09.520Z,1580.62
2019-06-01T10:47:09.510Z,3543.75
2019-06-01T10:48:09.479Z,1158.75
2019-06-01T10:49:09.486Z,1012.50
2019-06-01T10:50:09.480Z,939.38
2019-06-01T10:51:09.455Z,1113.75
2019-06-01T10:52:09.443Z,1288.12
2019-06-01T10:53:09.458Z,1395.00
2019-06-01T10:54:09.414Z,5146.88
2019-06-01T10:55:09.425Z,995.62
2019-06-01T10:56:09.390Z,4055.62
2019-06-01T10:57:09.376Z,2047.50
2019-06-01T10:58:09.397Z,1518.75
2019-06-01T10:59:09.374Z,2812.50
2019-06-01T11:00:09.375Z,1552.50
2019-06-01T11:01:09.334Z,1327.50
2019-06-01T11:02:09.342Z,4044.38
2019-06-01T11:03:09.346Z,1541.25
2019-06-01T11:04:09.305Z,3937.50
2019-06-01T11:05:09.321Z,3712.50
2019-06-01T11:06:09.296Z,3481.88
2019-06-01T11:07:09.278Z,1119.38
2019-06-01T11:08:09.275Z,3465.00
2019-06-01T11:09:09.291Z,2131.88
2019-06-01T11:10:09.297Z,5090.62
2019-06-01T11:11:09.251Z,3268.12
2019-06-01T11:12:09.240Z,5220.00
2019-06-01T11:13:09.226Z,5518.12
2019-06-01T11:14:09.217Z,5563.12
2019-06-01T11:15:09.267Z,1400.62
2019-06-01T11:16:09.187Z,5518.12
2019-06-01T11:17:09.207Z,5748.75
2019-06-01T11:18:09.171Z,5073.75
2019-06-01T11:19:09.174Z,5580.00
2019-06-01T11:20:09.191Z,5765.62
2019-06-01T11:21:09.154Z,3594.38
2019-06-01T11:22:09.185Z,1001.25
2019-06-01T11:23:09.133Z,4320.00
2019-06-01T11:24:09.117Z,2452.50
2019-06-01T11:25:09.129Z,5529.38
2019-06-01T11:26:09.095Z,4387.50
2019-06-01T11:27:09.111Z,5726.25
2019-06-01T11:28:09.080Z,5675.62
2019-06-01T11:29:09.067Z,2396.25
2019-06-01T11:30:09.102Z,2115.00
2019-06-01T11:31:09.053Z,2199.38
2019-06-01T11:32:09.080Z,3195.00
2019-06-01T11:33:09.025Z,5613.75
2019-06-01T11:34:09.024Z,5596.88
2019-06-01T11:35:09.021Z,5602.50
2019-06-01T11:36:09.007Z,5540.62
2019-06-01T11:37:09.030Z,5596.88
2019-06-01T11:38:08.982Z,1316.25
2019-06-01T11:39:08.964Z,2739.38
2019-06-01T11:40:08.992Z,1012.50
2019-06-01T11:41:08.963Z,1153.12
2019-06-01T11:42:08.942Z,1333.12
2019-06-01T11:43:08.945Z,5461.88
2019-06-01T11:44:08.931Z,5349.38
2019-06-01T11:45:08.990Z,5709.38
2019-06-01T11:46:08.905Z,5591.25
2019-06-01T11:47:08.899Z,3943.12
2019-06-01T11:48:08.875Z,2430.00
2019-06-01T11:49:08.878Z,5371.88
2019-06-01T11:50:08.867Z,5310.00
2019-06-01T11:51:08.869Z,5467.50
2019-06-01T11:52:08.850Z,5495.62
2019-06-01T11:53:08.839Z,5270.62
2019-06-01T11:54:08.821Z,5124.38
2019-06-01T11:55:08.826Z,5371.88
2019-06-01T11:56:08.826Z,5366.25
2019-06-01T11:57:08.792Z,5608.12
2019-06-01T11:58:08.815Z,5490.00
2019-06-01T11:59:08.802Z,2463.75
2019-06-01T12:00:08.796Z,5349.38
2019-06-01T12:01:08.762Z,5490.00
2019-06-01T12:02:08.776Z,5293.12
2019-06-01T12:03:08.738Z,5428.12
2019-06-01T12:04:08.728Z,1749.38
2019-06-01T12:05:08.797Z,2154.38
2019-06-01T12:06:08.708Z,939.38
2019-06-01T12:07:17.360Z,5287.50
2019-06-01T12:08:09.719Z,5253.75
2019-06-01T12:09:08.696Z,5501.25
2019-06-01T12:10:08.694Z,5636.25
2019-06-01T12:11:08.677Z,5591.25
2019-06-01T12:12:08.680Z,5371.88
2019-06-01T12:13:08.665Z,5315.62
2019-06-01T12:14:08.641Z,5163.75
2019-06-01T12:15:08.638Z,5056.88
2019-06-01T12:16:08.623Z,5000.62
2019-06-01T12:17:08.681Z,4741.88
2019-06-01T12:18:08.595Z,4635.00
2019-06-01T12:19:08.599Z,4781.25
2019-06-01T12:20:08.637Z,4792.50
2019-06-01T12:21:08.576Z,4938.75
2019-06-01T12:22:08.605Z,5169.38
2019-06-01T12:23:08.547Z,2576.25
2019-06-01T12:24:08.587Z,5326.88
2019-06-01T12:25:08.532Z,5416.88
2019-06-01T12:26:08.527Z,5383.12
2019-06-01T12:27:08.581Z,5456.25
2019-06-01T12:28:08.511Z,5501.25
2019-06-01T12:29:08.502Z,5428.12